Time;durP1;ratioP1;P1;durP2;ratioP2;P2;SDS_P1;SDS_P2;PMS_P1;PMS_P2;Temp;Humidity;BMP_temperature;BMP_pressure;BME280_temperature;BME280_humidity;BME280_pressure;Samples;Min_cycle;Max_cycle;Signal;HPM_P1;HPM_P2
2023/02/18 00:01:12;;;;;;;28.03;3.70;;;7.10;99.90;;;;;;5059331;28;20275;-51
2023/02/18 00:03:39;;;;;;;17.33;3.73;;;7.10;99.90;;;;;;5032684;28;20730;-52
2023/02/18 00:06:14;;;;;;;19.33;3.57;;;7.10;99.90;;;;;;5041625;28;20223;-57
2023/02/18 00:08:43;;;;;;;14.30;3.17;;;7.10;99.90;;;;;;5062303;28;20276;-55
2023/02/18 00:11:11;;;;;;;18.73;3.60;;;7.20;99.90;;;;;;5044534;28;20269;-53
2023/02/18 00:13:39;;;;;;;20.10;4.37;;;7.20;99.90;;;;;;5052643;28;20226;-54
2023/02/18 00:16:08;;;;;;;14.27;2.93;;;7.20;99.90;;;;;;5047342;28;20594;-54
2023/02/18 00:18:35;;;;;;;17.97;4.60;;;7.20;99.90;;;;;;5038543;28;20230;-50
2023/02/18 00:21:04;;;;;;;19.50;3.83;;;7.20;99.90;;;;;;5054060;28;20594;-50
2023/02/18 00:23:31;;;;;;;19.27;3.80;;;7.20;99.90;;;;;;5040204;28;20214;-51
2023/02/18 00:25:59;;;;;;;21.10;3.43;;;7.20;99.90;;;;;;5046593;28;20221;-50
2023/02/18 00:28:27;;;;;;;17.47;3.77;;;7.20;99.90;;;;;;5047210;28;20724;-53
2023/02/18 00:30:55;;;;;;;19.30;3.63;;;7.20;99.90;;;;;;5047586;28;20297;-51
2023/02/18 00:33:21;;;;;;;24.17;4.80;;;7.20;99.90;;;;;;5042239;28;20888;-54
2023/02/18 00:35:48;;;;;;;16.87;3.07;;;7.10;99.90;;;;;;5050083;28;20194;-55
2023/02/18 00:38:15;;;;;;;18.40;3.30;;;7.10;99.90;;;;;;5053711;28;20309;-53
2023/02/18 00:40:42;;;;;;;20.70;4.60;;;7.10;99.90;;;;;;5063296;28;20199;-54
2023/02/18 00:43:10;;;;;;;22.23;4.30;;;7.10;99.90;;;;;;5051982;28;20203;-51
2023/02/18 00:45:38;;;;;;;23.60;4.13;;;7.10;99.90;;;;;;5040366;28;20207;-51
2023/02/18 00:48:05;;;;;;;18.03;3.83;;;7.10;99.90;;;;;;5058204;28;20229;-50
2023/02/18 00:50:32;;;;;;;19.57;3.67;;;7.00;99.90;;;;;;5035926;28;20929;-50
2023/02/18 00:52:58;;;;;;;17.10;3.97;;;7.00;99.90;;;;;;5046173;28;20557;-51
2023/02/18 00:55:25;;;;;;;13.83;3.57;;;6.90;99.90;;;;;;5062415;28;20647;-54
2023/02/18 00:57:52;;;;;;;17.37;3.47;;;6.90;99.90;;;;;;5057121;28;20200;-50
2023/02/18 01:00:19;;;;;;;19.23;3.30;;;6.90;99.90;;;;;;5048474;28;20211;-54
2023/02/18 01:02:47;;;;;;;21.50;3.83;;;7.00;99.90;;;;;;5052476;28;20203;-50
2023/02/18 01:05:14;;;;;;;18.57;2.87;;;6.90;99.90;;;;;;5032139;28;20203;-50
2023/02/18 01:07:41;;;;;;;16.27;3.20;;;6.90;99.90;;;;;;5056546;28;20195;-54
2023/02/18 01:10:08;;;;;;;15.63;3.23;;;6.90;99.90;;;;;;5053411;28;20279;-50
2023/02/18 01:12:35;;;;;;;14.83;3.20;;;6.90;99.90;;;;;;5047034;28;20233;-51
2023/02/18 01:15:01;;;;;;;16.67;3.70;;;6.90;99.90;;;;;;5060574;28;20259;-50
2023/02/18 01:17:28;;;;;;;17.80;3.40;;;6.90;99.90;;;;;;5049292;28;20206;-51
2023/02/18 01:19:57;;;;;;;16.47;3.40;;;6.90;99.90;;;;;;5044690;28;20219;-50
2023/02/18 01:22:24;;;;;;;13.17;3.30;;;6.90;99.90;;;;;;5035662;28;20211;-55
2023/02/18 01:24:50;;;;;;;23.90;3.67;;;6.90;99.90;;;;;;5049573;28;20198;-54
2023/02/18 01:27:18;;;;;;;15.83;3.50;;;6.90;99.90;;;;;;5063950;28;20214;-50
2023/02/18 01:29:45;;;;;;;18.57;3.20;;;6.90;99.90;;;;;;5047644;28;20698;-54
2023/02/18 01:32:12;;;;;;;17.90;3.10;;;6.80;99.90;;;;;;5039140;28;20273;-52
2023/02/18 01:34:41;;;;;;;21.43;3.50;;;6.80;99.90;;;;;;5060308;28;20705;-54
2023/02/18 01:37:09;;;;;;;16.57;3.23;;;6.80;99.90;;;;;;5038061;28;20266;-53
2023/02/18 01:39:35;;;;;;;22.83;3.83;;;6.80;99.90;;;;;;5048564;28;20227;-53
2023/02/18 01:42:03;;;;;;;16.47;2.60;;;6.70;99.90;;;;;;5058631;28;20294;-52
2023/02/18 01:44:30;;;;;;;16.83;2.63;;;6.70;99.90;;;;;;5050846;28;20195;-55
2023/02/18 01:46:57;;;;;;;9.73;2.57;;;6.70;99.90;;;;;;5049651;28;20215;-56
2023/02/18 01:49:27;;;;;;;17.00;3.23;;;6.60;99.90;;;;;;5044583;28;20314;-51
2023/02/18 01:51:58;;;;;;;13.37;3.20;;;6.60;99.90;;;;;;5037446;28;20219;-55
2023/02/18 01:54:31;;;;;;;8.87;2.83;;;6.60;99.90;;;;;;5045558;28;20214;-54
2023/02/18 01:57:04;;;;;;;13.77;2.10;;;6.60;99.90;;;;;;5060581;28;20193;-52
2023/02/18 01:59:34;;;;;;;18.50;3.47;;;6.60;99.90;;;;;;5050923;28;20584;-54
2023/02/18 02:02:01;;;;;;;21.17;3.57;;;6.50;99.90;;;;;;5053570;28;20282;-56
2023/02/18 02:04:30;;;;;;;22.60;2.73;;;6.50;99.90;;;;;;5051680;28;20197;-53
2023/02/18 02:06:57;;;;;;;17.63;3.20;;;6.50;99.90;;;;;;5039247;28;20219;-52
2023/02/18 02:09:26;;;;;;;18.20;2.70;;;6.60;99.90;;;;;;5047027;28;20227;-51
2023/02/18 02:12:33;;;;;;;15.23;3.50;;;6.50;99.90;;;;;;5047858;28;20206;-60
2023/02/18 02:15:22;;;;;;;11.77;2.80;;;6.60;99.90;;;;;;5051347;28;20201;-52
2023/02/18 02:18:02;;;;;;;17.10;3.73;;;6.50;99.90;;;;;;5050857;28;20540;-54
2023/02/18 02:20:59;;;;;;;19.73;3.30;;;6.50;99.90;;;;;;5041043;28;20210;-52
2023/02/18 02:23:46;;;;;;;15.80;3.33;;;6.50;99.90;;;;;;5039282;28;20205;-51
2023/02/18 02:26:46;;;;;;;19.83;3.90;;;6.50;99.90;;;;;;5039143;28;20230;-54
2023/02/18 02:29:47;;;;;;;10.40;2.63;;;6.50;99.90;;;;;;5027683;28;20245;-55
2023/02/18 02:32:39;;;;;;;14.63;3.07;;;6.50;99.90;;;;;;5047723;28;20711;-53
2023/02/18 02:35:12;;;;;;;18.63;2.90;;;6.50;99.90;;;;;;5040797;28;20207;-55
2023/02/18 02:37:45;;;;;;;17.93;3.00;;;6.50;99.90;;;;;;5039312;28;20218;-51
2023/02/18 02:40:22;;;;;;;17.33;3.67;;;6.50;99.90;;;;;;5039834;28;20210;-55
2023/02/18 02:43:04;;;;;;;18.00;2.97;;;6.50;99.90;;;;;;5044449;28;20195;-54
2023/02/18 02:45:42;;;;;;;17.87;2.50;;;6.50;99.90;;;;;;5043867;28;20278;-54
2023/02/18 02:48:15;;;;;;;12.60;3.10;;;6.40;99.90;;;;;;5047799;28;20215;-53
2023/02/18 02:50:47;;;;;;;13.33;2.47;;;6.40;99.90;;;;;;5043442;28;20199;-55
2023/02/18 02:53:19;;;;;;;16.47;2.83;;;6.40;99.90;;;;;;5036107;28;20682;-54
2023/02/18 02:55:46;;;;;;;18.37;3.10;;;6.50;99.90;;;;;;5048224;28;20685;-55
2023/02/18 02:58:16;;;;;;;14.23;2.73;;;6.50;99.90;;;;;;5041319;28;20741;-54
2023/02/18 03:00:57;;;;;;;18.80;2.73;;;6.50;99.90;;;;;;5042765;28;20261;-52
2023/02/18 03:04:18;;;;;;;12.33;3.47;;;6.50;99.90;;;;;;5051358;28;20780;-54
2023/02/18 03:07:07;;;;;;;14.47;3.33;;;6.50;99.90;;;;;;5045739;28;20245;-55
2023/02/18 03:09:47;;;;;;;12.33;2.37;;;6.50;99.90;;;;;;5036618;28;20231;-51
2023/02/18 03:12:23;;;;;;;13.23;2.77;;;6.50;99.90;;;;;;5045611;28;20209;-54
2023/02/18 03:14:56;;;;;;;11.97;2.37;;;6.50;99.90;;;;;;5050848;28;20198;-55
2023/02/18 03:17:27;;;;;;;13.27;1.90;;;6.50;99.90;;;;;;5043382;28;20646;-55
2023/02/18 03:20:02;;;;;;;18.37;3.20;;;6.50;99.90;;;;;;5049638;28;20222;-52
2023/02/18 03:22:34;;;;;;;8.07;2.07;;;6.50;99.90;;;;;;5045180;28;20214;-51
2023/02/18 03:25:24;;;;;;;11.67;2.33;;;6.60;99.90;;;;;;5034473;28;20217;-51
2023/02/18 03:27:55;;;;;;;13.53;3.33;;;6.60;99.90;;;;;;5040764;28;20246;-52
2023/02/18 03:30:28;;;;;;;12.10;2.27;;;6.60;99.90;;;;;;5044293;28;20264;-51
2023/02/18 03:32:59;;;;;;;14.73;2.40;;;6.60;99.90;;;;;;5043354;28;20198;-51
2023/02/18 03:35:28;;;;;;;10.60;2.23;;;6.60;99.90;;;;;;5037794;28;20249;-50
2023/02/18 03:38:01;;;;;;;11.47;2.40;;;6.70;99.90;;;;;;5041928;28;20639;-53
2023/02/18 03:40:31;;;;;;;12.67;2.17;;;6.70;99.90;;;;;;5038077;28;20280;-50
2023/02/18 03:43:00;;;;;;;12.43;1.83;;;6.80;99.90;;;;;;5042554;28;21883;-53
2023/02/18 03:45:28;;;;;;;8.73;1.53;;;6.90;99.90;;;;;;5061834;28;20195;-50
2023/02/18 03:47:54;;;;;;;9.03;1.60;;;6.90;99.90;;;;;;5049314;28;20210;-55
2023/02/18 03:50:24;;;;;;;10.60;2.20;;;6.90;99.90;;;;;;5055583;28;20210;-51
2023/02/18 03:52:51;;;;;;;10.50;2.47;;;6.90;99.90;;;;;;5044759;28;20256;-54
2023/02/18 03:55:19;;;;;;;17.60;2.33;;;6.90;99.90;;;;;;5048860;28;20229;-50
2023/02/18 03:57:46;;;;;;;11.33;2.00;;;6.90;99.90;;;;;;5055530;28;20202;-53
2023/02/18 04:00:14;;;;;;;10.70;2.00;;;7.00;99.90;;;;;;5044126;28;20198;-50
2023/02/18 04:02:41;;;;;;;5.13;1.80;;;6.90;99.90;;;;;;5046155;28;20336;-55
2023/02/18 04:05:08;;;;;;;12.23;1.83;;;6.90;99.90;;;;;;5052936;28;20271;-52
2023/02/18 04:07:35;;;;;;;7.73;2.33;;;7.00;99.90;;;;;;5052598;28;20217;-51
2023/02/18 04:10:02;;;;;;;13.17;1.70;;;7.00;99.90;;;;;;5044053;28;20223;-50
2023/02/18 04:12:30;;;;;;;7.93;1.43;;;6.90;99.90;;;;;;5045025;28;20297;-51
2023/02/18 04:14:57;;;;;;;4.40;1.10;;;7.00;99.90;;;;;;5045152;28;20781;-52
2023/02/18 04:17:24;;;;;;;11.83;1.60;;;6.90;99.90;;;;;;5057147;28;20192;-54
2023/02/18 04:19:50;;;;;;;11.03;1.77;;;6.90;99.90;;;;;;5056271;28;20223;-55
2023/02/18 04:22:17;;;;;;;7.20;1.80;;;6.90;99.90;;;;;;5052649;28;20257;-51
2023/02/18 04:24:44;;;;;;;7.50;1.90;;;6.80;99.90;;;;;;5049918;28;20574;-56
2023/02/18 04:27:10;;;;;;;9.73;1.27;;;6.80;99.90;;;;;;5036010;28;20253;-51
2023/02/18 04:29:39;;;;;;;9.27;1.40;;;6.80;99.90;;;;;;5057111;28;20211;-54
2023/02/18 04:32:06;;;;;;;6.03;1.53;;;6.80;99.90;;;;;;5038868;28;20271;-50
2023/02/18 04:34:32;;;;;;;8.27;1.63;;;6.70;99.90;;;;;;5054032;28;20618;-52
2023/02/18 04:37:22;;;;;;;10.07;1.33;;;6.70;99.90;;;;;;5055313;28;20350;-51
2023/02/18 04:39:49;;;;;;;6.73;1.63;;;6.60;99.90;;;;;;5044611;28;20617;-53
2023/02/18 04:42:16;;;;;;;9.13;2.13;;;6.60;99.90;;;;;;5040973;28;20272;-53
2023/02/18 04:44:44;;;;;;;5.00;1.23;;;6.60;99.90;;;;;;5053175;28;20199;-52
2023/02/18 04:47:11;;;;;;;7.30;1.57;;;6.60;99.90;;;;;;5049618;28;20214;-53
2023/02/18 04:49:38;;;;;;;16.10;2.20;;;6.50;99.90;;;;;;5062214;28;20214;-51
2023/02/18 04:52:05;;;;;;;10.33;1.63;;;6.50;99.90;;;;;;5045679;28;20195;-50
2023/02/18 04:54:32;;;;;;;11.17;1.60;;;6.50;99.90;;;;;;5046480;28;20207;-51
2023/02/18 04:56:59;;;;;;;11.10;2.10;;;6.50;99.90;;;;;;5052611;28;20195;-51
2023/02/18 04:59:25;;;;;;;7.30;1.70;;;6.50;99.90;;;;;;5034102;28;20269;-49
2023/02/18 05:01:53;;;;;;;7.43;1.57;;;6.50;99.90;;;;;;5032740;28;20230;-50
2023/02/18 05:04:20;;;;;;;4.90;1.70;;;6.50;99.90;;;;;;5046338;28;20194;-50
2023/02/18 05:06:47;;;;;;;5.80;1.00;;;6.50;99.90;;;;;;5044308;28;20260;-52
2023/02/18 05:09:14;;;;;;;7.63;1.57;;;6.50;99.90;;;;;;5044947;28;20532;-49
2023/02/18 05:12:02;;;;;;;6.97;1.47;;;6.50;99.90;;;;;;5049817;28;20341;-53
2023/02/18 05:14:29;;;;;;;3.00;1.30;;;6.50;99.90;;;;;;5037830;28;20204;-53
2023/02/18 05:16:57;;;;;;;4.07;1.00;;;6.50;99.90;;;;;;5045947;28;20198;-52
2023/02/18 05:19:24;;;;;;;9.13;1.43;;;6.40;99.90;;;;;;5054227;28;20241;-51
2023/02/18 05:21:50;;;;;;;9.30;1.63;;;6.40;99.90;;;;;;5048229;28;20202;-54
2023/02/18 05:24:17;;;;;;;8.13;1.40;;;6.40;99.90;;;;;;5045614;28;20248;-53
2023/02/18 05:26:44;;;;;;;8.23;1.77;;;6.40;99.90;;;;;;5048102;28;20227;-54
2023/02/18 05:29:11;;;;;;;10.83;1.80;;;6.40;99.90;;;;;;5063082;28;20973;-52
2023/02/18 05:31:38;;;;;;;6.70;1.57;;;6.40;99.90;;;;;;5039510;28;20207;-55
2023/02/18 05:34:07;;;;;;;5.50;1.50;;;6.30;99.90;;;;;;5052741;28;21009;-50
2023/02/18 05:36:33;;;;;;;10.20;1.60;;;6.30;99.90;;;;;;5050975;28;20223;-54
2023/02/18 05:39:00;;;;;;;6.43;1.80;;;6.30;99.90;;;;;;5038732;28;20223;-54
2023/02/18 05:41:27;;;;;;;6.37;1.30;;;6.30;99.90;;;;;;5052577;28;20194;-52
2023/02/18 05:46:38;;;;;;;7.90;1.20;;;6.30;99.90;;;;;;5042892;28;20271;-53
2023/02/18 05:49:06;;;;;;;11.37;1.47;;;6.30;99.90;;;;;;5039132;28;20218;-52
2023/02/18 05:51:33;;;;;;;13.77;1.90;;;6.30;99.90;;;;;;5053816;28;20199;-54
2023/02/18 05:54:00;;;;;;;9.43;1.87;;;6.20;99.90;;;;;;5044904;28;20230;-50
2023/02/18 05:56:27;;;;;;;8.93;1.40;;;6.20;99.90;;;;;;5055377;28;20203;-51
2023/02/18 05:58:54;;;;;;;8.13;1.50;;;6.20;99.90;;;;;;5041695;28;20226;-54
2023/02/18 06:01:20;;;;;;;9.93;1.93;;;6.20;99.90;;;;;;5046129;28;20207;-55
2023/02/18 06:03:47;;;;;;;10.20;1.60;;;6.20;99.90;;;;;;5034647;28;20223;-53
2023/02/18 06:06:15;;;;;;;11.07;1.70;;;6.20;99.90;;;;;;5047638;28;20206;-53
2023/02/18 06:08:42;;;;;;;4.13;1.50;;;6.20;99.90;;;;;;5051869;28;20222;-52
2023/02/18 06:11:09;;;;;;;6.13;1.37;;;6.20;99.90;;;;;;5039513;28;20211;-50
2023/02/18 06:13:36;;;;;;;7.93;1.50;;;6.10;99.90;;;;;;5049326;28;20868;-54
2023/02/18 06:16:03;;;;;;;9.13;1.47;;;6.10;99.90;;;;;;5054017;28;20182;-52
2023/02/18 06:18:31;;;;;;;8.40;1.70;;;6.10;99.90;;;;;;5037508;28;20255;-54
2023/02/18 06:20:57;;;;;;;7.03;2.03;;;6.10;99.90;;;;;;5044513;28;20191;-51
2023/02/18 06:23:25;;;;;;;5.27;1.23;;;6.10;99.90;;;;;;5051026;28;20199;-50
2023/02/18 06:26:14;;;;;;;7.53;1.63;;;6.10;99.90;;;;;;5047852;28;20217;-51
2023/02/18 06:28:41;;;;;;;11.03;1.83;;;6.00;99.90;;;;;;5054664;28;20215;-54
2023/02/18 06:31:08;;;;;;;8.87;1.60;;;6.00;99.90;;;;;;5055703;28;20198;-50
2023/02/18 06:33:35;;;;;;;10.90;2.10;;;6.00;99.90;;;;;;5045188;28;20229;-55
2023/02/18 06:36:06;;;;;;;8.17;1.57;;;6.00;99.90;;;;;;5041931;28;20882;-54
2023/02/18 06:38:35;;;;;;;9.23;2.03;;;6.00;99.90;;;;;;5051918;28;20888;-52
2023/02/18 06:41:02;;;;;;;9.90;2.33;;;6.00;99.90;;;;;;5040269;28;20206;-56
2023/02/18 06:43:29;;;;;;;5.40;1.47;;;6.00;99.90;;;;;;5046232;28;20203;-52
2023/02/18 06:45:55;;;;;;;5.57;1.60;;;6.00;99.90;;;;;;5046861;28;20199;-53
2023/02/18 06:48:22;;;;;;;6.63;1.13;;;6.00;99.90;;;;;;5033048;28;20226;-52
2023/02/18 06:50:49;;;;;;;8.77;1.83;;;5.90;99.90;;;;;;5046759;28;20211;-49
2023/02/18 06:53:16;;;;;;;6.03;1.37;;;5.90;99.90;;;;;;5059621;28;20195;-53
2023/02/18 06:55:45;;;;;;;11.53;1.40;;;5.90;99.90;;;;;;5044964;28;20213;-50
2023/02/18 06:58:12;;;;;;;8.43;1.33;;;5.90;99.90;;;;;;5041851;28;20238;-52
2023/02/18 07:00:39;;;;;;;7.63;1.83;;;5.90;99.90;;;;;;5048261;28;20570;-54
2023/02/18 07:03:06;;;;;;;7.47;1.83;;;5.90;99.90;;;;;;5049868;28;20948;-51
2023/02/18 07:05:34;;;;;;;3.87;0.83;;;5.90;99.90;;;;;;5033247;28;20207;-55
2023/02/18 07:08:01;;;;;;;4.17;1.17;;;6.00;99.90;;;;;;5053600;28;20253;-54
2023/02/18 07:10:28;;;;;;;7.03;1.10;;;6.00;99.90;;;;;;5056489;28;20653;-54
2023/02/18 07:12:56;;;;;;;4.07;1.20;;;6.00;99.90;;;;;;5036797;28;20213;-54
2023/02/18 07:15:45;;;;;;;4.00;1.23;;;6.00;99.90;;;;;;5040470;28;21039;-53
2023/02/18 07:18:12;;;;;;;4.40;1.30;;;6.00;99.90;;;;;;5054653;28;20306;-51
2023/02/18 07:20:39;;;;;;;9.57;1.87;;;6.00;99.90;;;;;;5027342;28;20282;-54
2023/02/18 07:23:06;;;;;;;4.73;1.40;;;6.00;99.90;;;;;;5051513;28;20698;-53
2023/02/18 07:25:33;;;;;;;9.73;2.37;;;6.00;99.90;;;;;;5047991;28;20203;-53
2023/02/18 07:28:01;;;;;;;6.63;1.63;;;6.00;99.90;;;;;;5040597;28;20222;-54
2023/02/18 07:30:28;;;;;;;4.30;1.10;;;6.00;99.90;;;;;;5048825;28;20281;-52
2023/02/18 07:32:55;;;;;;;7.73;1.43;;;6.00;99.90;;;;;;5039651;28;20219;-54
2023/02/18 07:35:43;;;;;;;3.10;0.90;;;6.00;99.90;;;;;;5030568;28;20218;-51
2023/02/18 07:38:10;;;;;;;7.50;1.30;;;6.00;99.90;;;;;;5039214;28;20218;-53
2023/02/18 07:40:37;;;;;;;6.53;1.30;;;6.00;99.90;;;;;;5049518;28;20214;-51
2023/02/18 07:43:05;;;;;;;6.67;1.53;;;6.10;99.90;;;;;;5043828;28;20199;-54
2023/02/18 07:45:32;;;;;;;6.57;1.40;;;6.00;99.90;;;;;;5041398;28;20198;-52
2023/02/18 07:48:20;;;;;;;7.73;1.57;;;6.00;99.90;;;;;;5051886;28;20234;-52
2023/02/18 07:50:47;;;;;;;5.40;1.30;;;6.00;99.90;;;;;;5053753;28;20206;-53
2023/02/18 07:53:15;;;;;;;3.93;1.53;;;6.00;99.90;;;;;;5035739;28;20214;-53
2023/02/18 07:55:51;;;;;;;5.10;1.03;;;6.10;99.90;;;;;;5047234;28;20274;-51
2023/02/18 07:58:24;;;;;;;4.73;1.40;;;6.10;99.90;;;;;;5038860;28;20787;-53
2023/02/18 08:00:52;;;;;;;9.83;1.53;;;6.10;99.90;;;;;;5042044;28;20684;-52
2023/02/18 08:03:21;;;;;;;4.03;1.23;;;6.20;99.90;;;;;;5047021;28;20203;-51
2023/02/18 08:05:49;;;;;;;7.33;1.30;;;6.20;99.90;;;;;;5049780;28;20209;-51
2023/02/18 08:08:19;;;;;;;3.77;1.27;;;6.20;99.90;;;;;;5034468;28;20590;-52
2023/02/18 08:10:47;;;;;;;6.27;1.60;;;6.20;99.90;;;;;;5048969;28;20209;-53
2023/02/18 08:13:14;;;;;;;4.43;1.43;;;6.20;99.90;;;;;;5039450;28;20202;-54
2023/02/18 08:15:42;;;;;;;6.97;1.90;;;6.30;99.90;;;;;;5042669;28;20207;-52
2023/02/18 08:18:15;;;;;;;10.40;1.80;;;6.30;99.90;;;;;;5050840;28;20268;-53
2023/02/18 08:20:42;;;;;;;5.77;1.27;;;6.30;99.90;;;;;;5046943;28;20192;-50
2023/02/18 08:23:11;;;;;;;6.10;1.67;;;6.30;99.90;;;;;;5033135;28;20242;-52
2023/02/18 08:25:37;;;;;;;5.23;1.43;;;6.30;99.90;;;;;;5046465;28;20196;-53
2023/02/18 08:28:04;;;;;;;6.83;1.50;;;6.40;99.90;;;;;;5045001;28;20231;-53
2023/02/18 08:30:31;;;;;;;10.63;1.77;;;6.40;99.90;;;;;;5041151;28;20217;-54
2023/02/18 08:32:59;;;;;;;4.07;1.80;;;6.40;99.90;;;;;;5048445;28;20199;-54
2023/02/18 08:35:26;;;;;;;8.93;1.97;;;6.40;99.90;;;;;;5057042;28;20202;-53
2023/02/18 08:37:53;;;;;;;6.13;1.90;;;6.40;99.90;;;;;;5040298;28;20213;-54
2023/02/18 08:40:20;;;;;;;7.40;1.80;;;6.40;99.90;;;;;;5043176;28;20482;-53
2023/02/18 08:42:47;;;;;;;7.67;2.47;;;6.40;99.90;;;;;;5053911;28;20559;-52
2023/02/18 08:45:14;;;;;;;9.00;2.27;;;6.40;99.90;;;;;;5041187;28;20199;-54
2023/02/18 08:47:41;;;;;;;15.37;2.43;;;6.50;99.90;;;;;;5042120;28;20195;-51
2023/02/18 08:50:09;;;;;;;6.03;2.10;;;6.40;99.90;;;;;;5046562;28;20199;-53
2023/02/18 08:52:36;;;;;;;5.63;2.00;;;6.40;99.90;;;;;;5037377;28;20218;-51
2023/02/18 08:55:22;;;;;;;6.53;1.73;;;6.50;99.90;;;;;;5055100;28;21000;-53
2023/02/18 08:57:49;;;;;;;6.83;1.60;;;6.50;99.90;;;;;;5055516;28;20203;-52
2023/02/18 09:00:18;;;;;;;8.07;1.77;;;6.40;99.90;;;;;;5047666;28;20238;-52
2023/02/18 09:02:46;;;;;;;7.67;1.90;;;6.40;99.90;;;;;;5040359;28;20261;-50
2023/02/18 09:05:14;;;;;;;9.87;2.10;;;6.40;99.90;;;;;;5054820;28;20571;-53
2023/02/18 09:07:41;;;;;;;6.27;1.70;;;6.40;99.90;;;;;;5057114;28;20201;-55
2023/02/18 09:10:09;;;;;;;7.37;2.23;;;6.40;99.90;;;;;;5040867;28;20661;-55
2023/02/18 09:12:36;;;;;;;4.97;1.70;;;6.40;99.90;;;;;;5045526;28;20199;-55
2023/02/18 09:15:04;;;;;;;3.73;1.63;;;6.40;99.90;;;;;;5047515;28;20194;-53
2023/02/18 09:17:32;;;;;;;7.47;2.10;;;6.40;99.90;;;;;;5043504;28;20217;-54
2023/02/18 09:19:58;;;;;;;7.20;1.77;;;6.40;99.90;;;;;;5053096;28;20617;-52
2023/02/18 09:22:27;;;;;;;8.20;2.17;;;6.40;99.90;;;;;;5054294;28;20191;-51
2023/02/18 09:24:53;;;;;;;10.07;1.83;;;6.50;99.90;;;;;;5041115;28;20198;-55
2023/02/18 09:27:21;;;;;;;7.17;1.93;;;6.50;99.90;;;;;;5053259;28;20195;-53
2023/02/18 09:29:49;;;;;;;10.30;2.33;;;6.40;99.90;;;;;;5044260;28;20295;-50
2023/02/18 09:32:17;;;;;;;8.43;2.10;;;6.40;99.90;;;;;;5045869;28;20294;-54
2023/02/18 09:34:44;;;;;;;6.70;1.93;;;6.40;99.90;;;;;;5040511;28;20209;-54
2023/02/18 09:37:34;;;;;;;7.17;1.60;;;6.40;99.90;;;;;;5050857;28;20344;-55
2023/02/18 09:40:01;;;;;;;4.00;1.70;;;6.40;99.90;;;;;;5053256;28;20226;-52
2023/02/18 09:42:32;;;;;;;7.00;1.83;;;6.40;99.90;;;;;;5040455;28;20203;-53
2023/02/18 09:45:02;;;;;;;7.00;2.07;;;6.40;99.90;;;;;;5051354;28;20199;-54
2023/02/18 09:47:33;;;;;;;5.47;1.87;;;6.40;99.90;;;;;;5044781;28;20194;-53
2023/02/18 09:50:06;;;;;;;8.33;2.70;;;6.40;99.90;;;;;;5053371;28;20233;-53
2023/02/18 09:52:38;;;;;;;7.20;2.70;;;6.50;99.90;;;;;;5044756;28;20322;-54
2023/02/18 09:55:17;;;;;;;4.47;2.70;;;6.50;99.90;;;;;;5054623;28;20268;-53
2023/02/18 09:57:46;;;;;;;7.93;2.53;;;6.50;99.90;;;;;;5040086;28;20579;-52
2023/02/18 10:00:21;;;;;;;6.13;2.80;;;6.50;99.90;;;;;;5047430;28;20211;-54
2023/02/18 10:02:55;;;;;;;3.73;2.80;;;6.50;99.90;;;;;;5046549;28;20214;-52
2023/02/18 10:05:22;;;;;;;7.33;3.40;;;6.50;99.90;;;;;;5044211;28;20203;-51
2023/02/18 10:07:56;;;;;;;6.67;3.53;;;6.60;99.90;;;;;;5056544;28;20273;-54
2023/02/18 10:10:32;;;;;;;7.87;4.07;;;6.50;99.90;;;;;;5049379;28;20198;-53
2023/02/18 10:13:00;;;;;;;5.50;4.10;;;6.50;99.90;;;;;;5040110;28;20217;-54
2023/02/18 10:15:30;;;;;;;7.70;4.50;;;6.50;99.90;;;;;;5050670;28;20192;-54
2023/02/18 10:17:58;;;;;;;7.93;4.20;;;6.50;99.90;;;;;;5036687;28;20206;-52
2023/02/18 10:20:28;;;;;;;5.20;3.87;;;6.50;99.90;;;;;;5048029;28;20298;-54
2023/02/18 10:23:00;;;;;;;5.27;3.97;;;6.50;99.90;;;;;;5045578;28;20269;-54
2023/02/18 10:25:28;;;;;;;8.60;4.50;;;6.60;99.90;;;;;;5055410;28;20199;-56
2023/02/18 10:27:58;;;;;;;6.60;5.00;;;6.60;99.90;;;;;;5037473;28;20634;-54
2023/02/18 10:30:30;;;;;;;5.80;4.80;;;6.60;99.90;;;;;;5043471;28;20249;-54
2023/02/18 10:33:09;;;;;;;7.73;4.90;;;6.60;99.90;;;;;;5048419;28;20222;-51
2023/02/18 10:35:44;;;;;;;5.40;4.23;;;6.60;99.90;;;;;;5047756;28;20308;-55
2023/02/18 10:38:20;;;;;;;6.23;4.57;;;6.60;99.90;;;;;;5040877;28;20223;-53
2023/02/18 10:40:58;;;;;;;4.80;4.30;;;6.50;99.90;;;;;;5042514;28;20195;-54
2023/02/18 10:43:35;;;;;;;5.00;3.90;;;6.60;99.90;;;;;;5031741;28;20199;-52
2023/02/18 10:46:11;;;;;;;6.33;4.43;;;6.70;99.90;;;;;;5053765;28;20207;-51
2023/02/18 10:48:50;;;;;;;5.23;3.83;;;6.70;99.90;;;;;;5049254;28;20224;-50
2023/02/18 10:51:21;;;;;;;6.57;4.53;;;6.70;99.90;;;;;;5045362;28;20572;-51
2023/02/18 10:53:52;;;;;;;5.77;4.33;;;6.70;99.90;;;;;;5052044;28;20699;-50
2023/02/18 10:56:33;;;;;;;5.10;4.60;;;6.70;99.90;;;;;;5052437;28;20202;-52
2023/02/18 10:59:06;;;;;;;4.83;4.43;;;6.80;99.90;;;;;;5055101;28;20218;-50
2023/02/18 11:01:33;;;;;;;6.97;4.60;;;6.80;99.90;;;;;;5029717;28;20222;-55
2023/02/18 11:04:12;;;;;;;6.83;4.53;;;6.80;99.90;;;;;;5048585;28;20215;-53
2023/02/18 11:06:41;;;;;;;6.03;4.93;;;6.90;99.90;;;;;;5037989;28;21338;-54
2023/02/18 11:09:28;;;;;;;5.67;5.17;;;6.90;99.90;;;;;;5058283;28;20690;-53
2023/02/18 11:12:02;;;;;;;8.03;5.10;;;6.90;99.90;;;;;;5044711;28;20200;-53
2023/02/18 11:14:41;;;;;;;8.03;5.73;;;6.90;99.90;;;;;;5034483;28;24038;-54
2023/02/18 11:17:16;;;;;;;6.80;5.87;;;6.90;99.90;;;;;;5047484;28;20672;-56
2023/02/18 11:19:42;;;;;;;8.53;6.37;;;6.90;99.90;;;;;;5051248;28;20215;-54
2023/02/18 11:22:17;;;;;;;7.73;6.67;;;6.90;99.90;;;;;;5052998;28;20252;-55
2023/02/18 11:25:20;;;;;;;6.67;5.83;;;6.90;99.90;;;;;;5059763;28;20214;-55
2023/02/18 11:27:50;;;;;;;8.03;6.87;;;7.00;99.90;;;;;;5048802;28;20718;-53
2023/02/18 11:30:21;;;;;;;7.77;6.47;;;7.00;99.90;;;;;;5034809;28;20243;-54
2023/02/18 11:32:50;;;;;;;8.20;7.00;;;7.00;99.90;;;;;;5045064;28;20215;-55
2023/02/18 11:35:19;;;;;;;9.93;7.57;;;7.10;99.90;;;;;;5047050;28;20199;-55
2023/02/18 11:37:47;;;;;;;9.73;8.00;;;7.10;99.90;;;;;;5039319;28;20219;-54
2023/02/18 11:40:22;;;;;;;8.03;6.97;;;7.10;99.90;;;;;;5052407;28;20201;-55
2023/02/18 11:42:50;;;;;;;9.93;6.97;;;7.10;99.90;;;;;;5050174;28;20202;-55
2023/02/18 11:45:28;;;;;;;10.67;8.13;;;7.20;99.90;;;;;;5044907;28;20679;-55
2023/02/18 11:48:00;;;;;;;10.27;7.53;;;7.20;99.90;;;;;;5044330;28;20236;-55
2023/02/18 11:50:32;;;;;;;12.67;7.50;;;7.30;99.90;;;;;;5036079;28;20212;-53
2023/02/18 11:52:59;;;;;;;9.40;8.17;;;7.30;99.90;;;;;;5047680;28;20206;-55
2023/02/18 11:55:31;;;;;;;12.17;8.07;;;7.30;99.90;;;;;;5040109;28;20384;-55
2023/02/18 11:58:16;;;;;;;8.07;6.77;;;7.40;99.90;;;;;;5046369;28;20287;-54
2023/02/18 12:00:46;;;;;;;7.37;6.67;;;7.40;99.90;;;;;;5034953;28;20325;-53
2023/02/18 12:03:23;;;;;;;8.47;6.80;;;7.40;99.90;;;;;;5041220;28;20553;-54
2023/02/18 12:05:50;;;;;;;8.10;7.30;;;7.50;99.90;;;;;;5047023;28;20206;-55
2023/02/18 12:08:22;;;;;;;6.10;5.00;;;7.50;99.90;;;;;;5051350;28;20234;-55
2023/02/18 12:10:51;;;;;;;4.00;3.70;;;7.50;99.90;;;;;;5055719;28;20250;-56
2023/02/18 12:13:24;;;;;;;3.20;3.00;;;7.60;99.90;;;;;;5047686;28;20571;-53
2023/02/18 12:16:01;;;;;;;1.63;1.53;;;7.80;99.90;;;;;;5034818;28;20195;-56
2023/02/18 12:18:51;;;;;;;1.50;1.40;;;8.00;99.90;;;;;;5051210;28;20214;-55
2023/02/18 12:21:35;;;;;;;2.53;1.53;;;8.20;99.90;;;;;;5043591;28;20233;-55
2023/02/18 12:24:17;;;;;;;1.10;1.00;;;8.30;99.90;;;;;;5054924;28;20199;-53
2023/02/18 12:26:56;;;;;;;2.20;1.00;;;8.60;99.90;;;;;;5050452;28;20195;-52
2023/02/18 12:29:36;;;;;;;2.27;1.10;;;8.70;99.90;;;;;;5050631;28;20697;-55
2023/02/18 12:32:25;;;;;;;8.83;2.30;;;8.80;99.90;;;;;;5043971;28;20281;-54
2023/02/18 12:35:03;;;;;;;8.90;2.10;;;9.00;99.90;;;;;;5044551;28;20211;-55
2023/02/18 12:37:54;;;;;;;7.37;2.37;;;8.90;99.90;;;;;;5044561;28;21005;-55
2023/02/18 12:40:40;;;;;;;5.00;1.87;;;9.00;99.90;;;;;;5036164;28;20204;-51
2023/02/18 12:43:18;;;;;;;6.57;2.10;;;9.00;99.90;;;;;;5055696;28;20277;-54
2023/02/18 12:45:59;;;;;;;8.53;2.30;;;9.10;99.90;;;;;;5052164;28;20199;-55
2023/02/18 12:48:46;;;;;;;8.87;1.80;;;9.10;99.90;;;;;;5038299;28;20225;-55
2023/02/18 12:51:24;;;;;;;10.30;2.60;;;9.10;99.90;;;;;;5049912;28;20714;-55
2023/02/18 12:54:08;;;;;;;6.27;2.10;;;9.10;99.90;;;;;;5038856;28;20207;-55
2023/02/18 12:56:51;;;;;;;6.67;2.07;;;9.10;99.90;;;;;;5043552;28;20958;-52
2023/02/18 12:59:44;;;;;;;9.27;2.63;;;9.10;99.90;;;;;;5050799;28;20285;-52
2023/02/18 13:02:27;;;;;;;6.40;2.57;;;9.10;99.90;;;;;;5053336;28;20199;-53
2023/02/18 13:05:03;;;;;;;8.60;2.03;;;9.10;99.90;;;;;;5036167;28;20199;-54
2023/02/18 13:07:53;;;;;;;9.70;2.43;;;9.10;99.90;;;;;;5053695;28;20205;-54
2023/02/18 13:10:52;;;;;;;6.80;2.00;;;9.10;99.90;;;;;;5049064;28;20214;-52
2023/02/18 13:13:21;;;;;;;10.43;2.47;;;9.00;99.90;;;;;;5051275;28;20214;-56
2023/02/18 13:15:53;;;;;;;14.10;2.57;;;9.10;99.90;;;;;;5041841;28;20203;-54
2023/02/18 13:18:24;;;;;;;5.83;2.40;;;9.00;99.90;;;;;;5039063;28;20297;-54